Time;durP1;ratioP1;P1;durP2;ratioP2;P2;SDS_P1;SDS_P2;PMS_P1;PMS_P2;Temp;Humidity;BMP_temperature;BMP_pressure;BME280_temperature;BME280_humidity;BME280_pressure;Samples;Min_cycle;Max_cycle;Signal;HPM_P1;HPM_P2
2020/12/14 00:02:17;;;;;;;14.38;5.20;;;6.30;98.40;;;;;;5028023;28;20042;-66
2020/12/14 00:04:44;;;;;;;9.13;4.53;;;6.20;98.50;;;;;;5027818;28;20132;-65
2020/12/14 00:07:10;;;;;;;15.23;5.38;;;6.30;98.20;;;;;;5027845;28;20046;-67
2020/12/14 00:09:36;;;;;;;10.82;5.10;;;6.30;98.40;;;;;;5027924;28;20046;-66
2020/12/14 00:12:02;;;;;;;13.23;5.78;;;6.30;98.50;;;;;;5027674;28;20098;-66
2020/12/14 00:14:48;;;;;;;13.95;5.40;;;6.30;98.40;;;;;;5026843;28;20053;-66
2020/12/14 00:17:17;;;;;;;9.52;5.13;;;6.30;98.10;;;;;;5027716;28;20409;-66
2020/12/14 00:19:43;;;;;;;10.98;4.60;;;6.30;98.10;;;;;;5027775;28;20041;-66
2020/12/14 00:22:08;;;;;;;10.13;4.35;;;6.30;98.10;;;;;;5027531;28;20130;-66
2020/12/14 00:24:54;;;;;;;6.50;4.38;;;6.30;98.20;;;;;;5026687;28;20049;-67
2020/12/14 00:27:20;;;;;;;10.52;4.55;;;6.20;98.60;;;;;;5027578;28;20044;-67
2020/12/14 00:29:46;;;;;;;9.52;4.40;;;6.30;98.50;;;;;;5027339;28;20045;-67
2020/12/14 00:32:11;;;;;;;9.32;4.50;;;6.30;98.50;;;;;;5027510;28;20041;-67
2020/12/14 00:34:57;;;;;;;15.40;4.55;;;6.30;98.50;;;;;;5026268;28;20112;-67
2020/12/14 00:37:23;;;;;;;9.20;4.65;;;6.30;98.70;;;;;;5027310;28;20046;-66
2020/12/14 00:40:09;;;;;;;11.48;4.00;;;6.30;98.60;;;;;;5026179;28;20050;-66
2020/12/14 00:42:35;;;;;;;15.20;5.00;;;6.30;98.50;;;;;;5027212;28;20049;-66
2020/12/14 00:45:01;;;;;;;7.18;4.80;;;6.30;98.90;;;;;;5027118;28;20042;-66
2020/12/14 00:47:46;;;;;;;12.43;4.15;;;6.20;99.40;;;;;;5026289;28;20050;-66
2020/12/14 00:50:12;;;;;;;11.63;4.57;;;6.20;99.70;;;;;;5027114;28;20042;-67
2020/12/14 00:52:38;;;;;;;12.73;4.78;;;6.10;99.90;;;;;;5027048;28;20049;-66
2020/12/14 00:55:04;;;;;;;10.35;4.85;;;5.90;99.90;;;;;;5027017;28;20042;-66
2020/12/14 00:57:30;;;;;;;13.27;4.70;;;5.90;99.90;;;;;;5026957;28;20062;-67
2020/12/14 00:59:57;;;;;;;9.02;4.40;;;5.80;99.90;;;;;;5027146;28;20521;-67
2020/12/14 01:02:42;;;;;;;10.23;5.28;;;5.80;99.90;;;;;;5025967;28;20058;-67
2020/12/14 01:05:08;;;;;;;7.47;4.18;;;5.70;99.90;;;;;;5026874;28;20421;-67
2020/12/14 01:07:34;;;;;;;12.00;4.90;;;5.70;99.90;;;;;;5026836;28;20069;-67
2020/12/14 01:10:19;;;;;;;12.82;5.65;;;5.70;99.90;;;;;;5026112;28;20053;-66
2020/12/14 01:12:45;;;;;;;8.98;5.15;;;5.70;99.90;;;;;;5026631;28;20038;-66
2020/12/14 01:15:11;;;;;;;8.57;4.70;;;5.70;99.90;;;;;;5026654;28;20099;-67
2020/12/14 01:17:57;;;;;;;10.38;5.60;;;5.70;99.90;;;;;;5025486;28;20042;-66
2020/12/14 01:20:22;;;;;;;10.48;4.88;;;5.70;99.90;;;;;;5026721;28;20050;-67
2020/12/14 01:22:48;;;;;;;13.38;5.55;;;5.70;99.90;;;;;;5026489;28;20042;-67
2020/12/14 01:25:14;;;;;;;10.50;6.30;;;5.70;99.90;;;;;;5026747;28;20042;-67
2020/12/14 01:27:39;;;;;;;10.10;5.28;;;5.80;99.90;;;;;;5026437;28;20101;-67
2020/12/14 01:30:05;;;;;;;13.13;4.82;;;5.80;99.90;;;;;;5026449;28;20050;-66
2020/12/14 01:32:31;;;;;;;9.88;5.18;;;5.80;99.90;;;;;;5026203;28;20056;-67
2020/12/14 01:34:57;;;;;;;13.00;5.13;;;5.90;99.90;;;;;;5026505;28;20072;-66
2020/12/14 01:37:23;;;;;;;15.82;5.20;;;5.80;99.90;;;;;;5026253;28;20128;-67
2020/12/14 01:39:48;;;;;;;8.30;5.20;;;5.80;99.90;;;;;;5026512;28;20046;-67
2020/12/14 01:42:14;;;;;;;11.70;5.35;;;5.90;99.90;;;;;;5026306;28;20105;-66
2020/12/14 01:45:00;;;;;;;15.95;5.28;;;5.90;99.90;;;;;;5024359;28;20046;-66
2020/12/14 01:47:33;;;;;;;10.57;5.30;;;5.90;99.90;;;;;;5026347;28;20057;-66
2020/12/14 01:50:00;;;;;;;10.82;5.47;;;5.90;99.90;;;;;;5026346;28;20118;-66
2020/12/14 01:52:26;;;;;;;12.02;6.05;;;5.90;99.90;;;;;;5026108;28;20049;-66
2020/12/14 01:54:53;;;;;;;8.85;5.40;;;5.90;99.90;;;;;;5026231;28;20045;-66
2020/12/14 01:57:19;;;;;;;7.90;4.95;;;6.00;99.90;;;;;;5026010;28;20528;-66
2020/12/14 01:59:46;;;;;;;16.08;5.13;;;6.00;99.90;;;;;;5026017;28;20072;-66
2020/12/14 02:02:13;;;;;;;10.38;5.25;;;6.00;99.90;;;;;;5026018;28;20061;-66
2020/12/14 02:04:39;;;;;;;9.88;5.15;;;6.00;99.90;;;;;;5026104;28;20093;-66
2020/12/14 02:07:05;;;;;;;11.13;4.90;;;5.90;99.90;;;;;;5025958;28;20046;-66
2020/12/14 02:09:30;;;;;;;15.63;6.03;;;6.00;99.90;;;;;;5026127;28;20057;-66
2020/12/14 02:12:16;;;;;;;9.45;5.20;;;6.00;99.90;;;;;;5011282;28;20054;-67
2020/12/14 02:14:42;;;;;;;12.27;5.82;;;6.00;99.90;;;;;;5025965;28;20128;-67
2020/12/14 02:17:07;;;;;;;16.90;6.35;;;5.90;99.90;;;;;;5026012;28;20053;-67
2020/12/14 02:19:33;;;;;;;13.80;5.53;;;5.90;99.90;;;;;;5025955;28;20073;-67
2020/12/14 02:21:59;;;;;;;12.93;6.10;;;6.00;99.90;;;;;;5025859;28;20081;-66
2020/12/14 02:24:56;;;;;;;10.18;5.63;;;6.00;99.90;;;;;;5024849;28;20409;-66
2020/12/14 02:27:43;;;;;;;9.80;5.38;;;6.10;99.90;;;;;;5024933;28;20046;-66
2020/12/14 02:30:10;;;;;;;15.68;6.35;;;6.00;99.90;;;;;;5025972;28;20061;-66
2020/12/14 02:32:36;;;;;;;12.98;5.68;;;6.00;99.90;;;;;;5025977;28;20077;-66
2020/12/14 02:35:22;;;;;;;12.40;5.22;;;6.10;99.90;;;;;;5024764;28;20049;-66
2020/12/14 02:37:48;;;;;;;14.93;5.10;;;6.10;99.90;;;;;;5025644;28;20050;-66
2020/12/14 02:40:13;;;;;;;9.30;4.85;;;6.00;99.90;;;;;;5025786;28;20046;-66
2020/12/14 02:42:39;;;;;;;7.10;4.90;;;6.10;99.90;;;;;;5025647;28;20038;-66
2020/12/14 02:45:25;;;;;;;9.32;4.57;;;6.10;99.90;;;;;;5024622;28;20049;-67
2020/12/14 02:48:10;;;;;;;7.72;4.75;;;6.10;99.90;;;;;;5024522;28;20114;-66
2020/12/14 02:50:37;;;;;;;10.65;5.10;;;6.10;99.90;;;;;;5025740;28;20061;-67
2020/12/14 02:53:03;;;;;;;15.63;5.47;;;6.10;99.90;;;;;;5025549;28;20048;-66
2020/12/14 02:55:29;;;;;;;8.95;4.70;;;6.20;99.90;;;;;;5025437;28;20054;-66
2020/12/14 02:58:15;;;;;;;11.52;4.55;;;6.20;99.90;;;;;;5027882;28;20061;-66
2020/12/14 03:00:40;;;;;;;14.10;6.00;;;6.20;99.90;;;;;;5029250;28;20046;-66
2020/12/14 03:03:06;;;;;;;10.18;4.68;;;6.20;99.90;;;;;;5029115;28;20052;-66
2020/12/14 03:05:32;;;;;;;10.27;5.25;;;6.20;99.90;;;;;;5029085;28;20184;-66
2020/12/14 03:07:57;;;;;;;13.13;5.53;;;6.20;99.90;;;;;;5029203;28;20076;-66
2020/12/14 03:10:23;;;;;;;10.73;4.57;;;6.20;99.90;;;;;;5028954;28;20063;-66
2020/12/14 03:13:09;;;;;;;13.88;4.25;;;6.30;99.90;;;;;;5027961;28;20056;-67
2020/12/14 03:15:34;;;;;;;8.05;4.85;;;6.30;99.90;;;;;;5028951;28;20109;-67
2020/12/14 03:18:00;;;;;;;11.82;5.30;;;6.30;99.90;;;;;;5028917;28;20105;-66
2020/12/14 03:20:26;;;;;;;11.93;4.88;;;6.30;99.90;;;;;;5028807;28;20073;-67
2020/12/14 03:22:52;;;;;;;9.15;5.25;;;6.30;99.90;;;;;;5028840;28;20057;-67
2020/12/14 03:25:17;;;;;;;10.10;4.60;;;6.40;99.90;;;;;;5028666;28;20092;-66
2020/12/14 03:28:03;;;;;;;12.95;5.30;;;6.30;99.90;;;;;;5027705;28;20050;-66
2020/12/14 03:30:29;;;;;;;12.02;4.30;;;6.40;99.90;;;;;;5028618;28;20124;-66
2020/12/14 03:32:54;;;;;;;10.57;4.47;;;6.30;99.90;;;;;;5028476;28;20049;-66
2020/12/14 03:35:21;;;;;;;12.98;5.15;;;6.30;99.90;;;;;;5028522;28;20056;-66
2020/12/14 03:37:46;;;;;;;13.10;5.55;;;6.30;99.90;;;;;;5028562;28;20413;-66
2020/12/14 03:40:12;;;;;;;12.77;5.60;;;6.30;99.90;;;;;;5028380;28;20081;-66
2020/12/14 03:42:38;;;;;;;8.75;4.70;;;6.30;99.90;;;;;;5028327;28;20109;-66
2020/12/14 03:45:03;;;;;;;9.98;4.75;;;6.40;99.90;;;;;;5028310;28;20046;-67
2020/12/14 03:47:30;;;;;;;12.57;5.63;;;6.40;99.90;;;;;;5028341;28;20038;-66
2020/12/14 03:50:16;;;;;;;10.63;5.88;;;6.40;99.90;;;;;;5027327;28;20046;-67
2020/12/14 03:52:41;;;;;;;8.20;5.38;;;6.40;99.90;;;;;;5028091;28;20077;-66
2020/12/14 03:55:27;;;;;;;13.82;5.63;;;6.40;99.90;;;;;;5027483;28;20046;-66
2020/12/14 03:57:53;;;;;;;12.27;4.55;;;6.30;99.90;;;;;;5028118;28;20077;-66
2020/12/14 04:00:18;;;;;;;8.73;4.70;;;6.30;99.90;;;;;;5028149;28;20054;-66
2020/12/14 04:02:44;;;;;;;11.00;5.85;;;6.30;99.90;;;;;;5028048;28;20092;-66
2020/12/14 04:05:10;;;;;;;14.95;5.68;;;6.30;99.90;;;;;;5027899;28;20038;-66
2020/12/14 04:07:36;;;;;;;9.10;4.75;;;6.30;99.90;;;;;;5027470;28;20438;-66
2020/12/14 04:10:02;;;;;;;14.10;5.95;;;6.30;99.90;;;;;;5028064;28;20057;-67
2020/12/14 04:12:28;;;;;;;9.82;5.97;;;6.30;99.90;;;;;;5027806;28;20065;-67
2020/12/14 04:14:53;;;;;;;10.15;5.75;;;6.30;99.90;;;;;;5028076;28;20478;-67
2020/12/14 04:17:39;;;;;;;12.10;5.50;;;6.40;99.90;;;;;;5026750;28;20054;-67
2020/12/14 04:20:05;;;;;;;9.82;5.38;;;6.40;99.90;;;;;;5027825;28;20068;-67
2020/12/14 04:22:50;;;;;;;12.38;5.70;;;6.40;99.90;;;;;;5026672;28;20081;-67
2020/12/14 04:25:17;;;;;;;11.10;5.20;;;6.40;99.90;;;;;;5027732;28;20046;-67
2020/12/14 04:28:02;;;;;;;10.55;5.15;;;6.40;99.90;;;;;;5026527;28;20056;-67
2020/12/14 04:30:28;;;;;;;11.43;5.20;;;6.40;99.90;;;;;;5027620;28;20038;-67
2020/12/14 04:32:54;;;;;;;12.63;5.28;;;6.40;99.90;;;;;;5027365;28;20564;-67
2020/12/14 04:35:40;;;;;;;7.28;4.68;;;6.40;99.90;;;;;;5026469;28;20053;-67
2020/12/14 04:38:06;;;;;;;14.05;6.30;;;6.40;99.90;;;;;;5027377;28;20448;-67
2020/12/14 04:40:52;;;;;;;8.20;5.13;;;6.40;99.90;;;;;;5026547;28;20064;-67
2020/12/14 04:43:17;;;;;;;11.32;5.95;;;6.40;99.90;;;;;;5027325;28;20042;-67
2020/12/14 04:45:45;;;;;;;10.40;5.25;;;6.40;99.90;;;;;;5027366;28;20046;-67
2020/12/14 04:48:12;;;;;;;10.55;5.75;;;6.40;99.90;;;;;;5027565;28;20052;-67
2020/12/14 04:50:39;;;;;;;10.73;5.47;;;6.40;99.90;;;;;;5027225;28;20045;-67
2020/12/14 04:53:05;;;;;;;10.73;4.97;;;6.40;99.90;;;;;;5027028;28;20053;-67
2020/12/14 04:55:36;;;;;;;9.68;5.00;;;6.40;99.90;;;;;;5027116;28;20045;-67
2020/12/14 04:58:04;;;;;;;8.77;5.38;;;6.40;99.90;;;;;;5026881;28;20057;-67
2020/12/14 05:00:49;;;;;;;13.07;5.05;;;6.40;99.90;;;;;;5025900;28;20046;-67
2020/12/14 05:03:15;;;;;;;9.27;5.40;;;6.40;99.90;;;;;;5026716;28;20077;-66
2020/12/14 05:05:41;;;;;;;10.88;5.13;;;6.40;99.90;;;;;;5026537;28;20046;-66
2020/12/14 05:08:29;;;;;;;8.88;5.32;;;6.40;99.90;;;;;;5025768;28;20080;-67
2020/12/14 05:10:55;;;;;;;11.90;4.55;;;6.40;99.90;;;;;;5026632;28;20120;-67
2020/12/14 05:13:41;;;;;;;10.30;5.97;;;6.50;99.90;;;;;;5025750;28;20046;-68
2020/12/14 05:16:07;;;;;;;9.93;5.07;;;6.50;99.90;;;;;;5026604;28;20133;-67
2020/12/14 05:18:53;;;;;;;10.48;6.35;;;6.50;99.90;;;;;;5025759;28;20077;-67
2020/12/14 05:22:01;;;;;;;11.82;5.53;;;6.50;99.90;;;;;;5025744;28;20080;-67
2020/12/14 05:24:32;;;;;;;10.18;5.90;;;6.50;99.90;;;;;;5026475;28;20523;-67
2020/12/14 05:26:59;;;;;;;15.25;6.07;;;6.50;99.90;;;;;;5026509;28;20109;-66
2020/12/14 05:29:45;;;;;;;11.32;5.90;;;6.60;99.90;;;;;;5025625;28;20136;-68
2020/12/14 05:32:12;;;;;;;13.38;5.55;;;6.50;99.90;;;;;;5026725;28;20073;-67
2020/12/14 05:34:42;;;;;;;15.37;5.80;;;6.50;99.90;;;;;;5026439;28;20045;-67
2020/12/14 05:37:11;;;;;;;13.30;6.82;;;6.50;99.90;;;;;;5026239;28;20050;-67
2020/12/14 05:39:57;;;;;;;11.65;6.93;;;6.60;99.90;;;;;;5025544;28;20080;-67
2020/12/14 05:42:43;;;;;;;16.52;7.43;;;6.50;99.90;;;;;;5025398;28;20109;-68
2020/12/14 05:45:12;;;;;;;19.33;7.65;;;6.50;99.90;;;;;;5026218;28;20061;-67
2020/12/14 05:47:42;;;;;;;8.60;6.47;;;6.40;99.90;;;;;;5026313;28;20048;-67
2020/12/14 05:50:09;;;;;;;10.13;7.00;;;6.40;99.90;;;;;;5026412;28;20041;-66
2020/12/14 05:52:40;;;;;;;16.48;8.32;;;6.30;99.90;;;;;;5026011;28;20062;-66
2020/12/14 05:55:28;;;;;;;17.38;9.05;;;6.30;99.90;;;;;;5025153;28;20046;-65
2020/12/14 05:57:58;;;;;;;;;;;6.20;99.90;;;;;;5026465;28;20054;-65
2020/12/14 06:00:24;;;;;;;13.70;9.20;;;6.20;99.90;;;;;;5026073;28;19921;-66
2020/12/14 06:03:10;;;;;;;14.68;9.25;;;6.30;99.90;;;;;;5025220;28;20077;-66
2020/12/14 06:05:36;;;;;;;15.63;9.82;;;6.20;99.90;;;;;;5026125;28;20050;-66
2020/12/14 06:08:27;;;;;;;17.55;9.27;;;6.20;99.90;;;;;;5026069;28;20073;-65
2020/12/14 06:10:58;;;;;;;19.27;10.80;;;6.20;99.90;;;;;;5025383;28;20163;-66
2020/12/14 06:13:47;;;;;;;18.35;9.80;;;6.20;99.90;;;;;;5025059;28;20050;-66
2020/12/14 06:16:19;;;;;;;19.75;9.98;;;6.20;99.90;;;;;;5026308;28;20042;-66
2020/12/14 06:19:05;;;;;;;19.30;11.13;;;6.20;99.90;;;;;;5025373;28;20050;-66
2020/12/14 06:21:39;;;;;;;17.38;11.50;;;6.20;99.90;;;;;;5025866;28;20108;-66
2020/12/14 06:24:13;;;;;;;21.20;12.23;;;6.20;99.90;;;;;;5025916;28;20104;-66
2020/12/14 06:26:43;;;;;;;19.65;12.65;;;6.20;99.90;;;;;;5025993;28;20061;-66
2020/12/14 06:29:08;;;;;;;24.90;12.35;;;6.20;99.90;;;;;;5025853;28;20046;-66
2020/12/14 06:31:54;;;;;;;23.02;13.07;;;6.20;99.90;;;;;;5026534;28;20486;-66
2020/12/14 06:34:40;;;;;;;23.73;12.85;;;6.20;99.90;;;;;;5028866;28;20046;-66
2020/12/14 06:37:06;;;;;;;24.60;13.18;;;6.20;99.90;;;;;;5029714;28;20050;-66
2020/12/14 06:39:59;;;;;;;23.15;12.85;;;6.20;99.90;;;;;;5028657;28;20042;-66
2020/12/14 06:42:46;;;;;;;24.70;12.95;;;6.20;99.90;;;;;;5028755;28;20076;-66
2020/12/14 06:45:12;;;;;;;13.63;10.52;;;6.20;99.90;;;;;;5029404;28;20481;-67
2020/12/14 06:47:47;;;;;;;19.55;12.27;;;6.20;99.90;;;;;;5029589;28;20098;-67
2020/12/14 06:50:37;;;;;;;17.50;11.25;;;6.20;99.90;;;;;;5028630;28;20050;-67
2020/12/14 06:53:04;;;;;;;24.10;14.05;;;6.20;99.90;;;;;;5029568;28;20057;-66
2020/12/14 06:55:49;;;;;;;17.20;12.63;;;6.20;99.90;;;;;;5028676;28;20108;-67
2020/12/14 06:58:32;;;;;;;22.40;12.77;;;6.20;99.90;;;;;;5029274;28;20505;-67
2020/12/14 07:01:38;;;;;;;24.42;13.50;;;6.20;99.90;;;;;;5028540;28;20050;-65
2020/12/14 07:04:31;;;;;;;19.73;14.23;;;6.20;99.90;;;;;;5029406;28;20045;-66
2020/12/14 07:07:30;;;;;;;20.80;12.27;;;6.30;99.90;;;;;;5028075;28;20057;-66
2020/12/14 07:10:16;;;;;;;18.92;12.35;;;6.30;99.90;;;;;;5028377;28;20049;-66
2020/12/14 07:13:02;;;;;;;17.27;12.15;;;6.40;99.90;;;;;;5028124;28;20045;-65
2020/12/14 07:16:05;;;;;;;20.92;13.38;;;6.40;99.90;;;;;;5028119;28;20073;-67
2020/12/14 07:18:53;;;;;;;20.95;14.02;;;6.40;99.90;;;;;;5028241;28;20050;-66
2020/12/14 07:21:20;;;;;;;;;;;6.40;99.90;;;;;;5029476;28;20048;-66
2020/12/14 07:23:47;;;;;;;20.95;13.57;;;6.40;99.90;;;;;;5028727;28;19922;-66
2020/12/14 07:26:16;;;;;;;21.15;14.48;;;6.40;99.90;;;;;;5028831;28;20042;-66
2020/12/14 07:28:51;;;;;;;18.30;11.73;;;6.40;99.90;;;;;;5028811;28;20057;-66
2020/12/14 07:31:19;;;;;;;15.60;13.82;;;6.50;99.90;;;;;;5028729;28;20038;-66
2020/12/14 07:33:54;;;;;;;19.52;15.02;;;6.50;99.90;;;;;;5028821;28;20049;-66
2020/12/14 07:36:20;;;;;;;19.70;14.45;;;6.60;99.90;;;;;;5028543;28;20050;-66
2020/12/14 07:38:57;;;;;;;20.42;14.73;;;6.60;99.90;;;;;;5028970;28;20069;-66
2020/12/14 07:41:25;;;;;;;20.48;15.63;;;6.60;99.90;;;;;;5028513;28;20042;-65
2020/12/14 07:43:56;;;;;;;16.98;14.68;;;6.60;99.90;;;;;;5027291;28;20481;-65
2020/12/14 07:46:42;;;;;;;16.17;13.27;;;6.60;99.90;;;;;;5027500;28;20420;-65
2020/12/14 07:49:10;;;;;;;19.77;15.30;;;6.60;99.90;;;;;;5028424;28;20106;-65
2020/12/14 07:51:37;;;;;;;;;;;6.70;99.90;;;;;;5029099;28;20156;-66
2020/12/14 07:54:22;;;;;;;18.25;14.43;;;6.70;99.90;;;;;;5028496;28;20412;-66
2020/12/14 07:57:06;;;;;;;19.80;14.40;;;6.70;99.90;;;;;;5027910;28;20087;-65
2020/12/14 07:59:31;;;;;;;19.15;16.17;;;6.80;99.90;;;;;;5028270;28;20076;-65
2020/12/14 08:01:58;;;;;;;18.92;15.77;;;6.80;99.90;;;;;;5028112;28;20046;-66
2020/12/14 08:04:44;;;;;;;18.85;15.50;;;6.80;99.90;;;;;;5027030;28;20482;-66
2020/12/14 08:07:10;;;;;;;19.67;14.07;;;6.90;99.90;;;;;;5027691;28;20072;-66
2020/12/14 08:09:43;;;;;;;22.10;16.92;;;6.90;99.90;;;;;;5027702;28;20046;-66
2020/12/14 08:12:10;;;;;;;25.00;16.35;;;6.90;99.90;;;;;;5026715;28;20046;-65
2020/12/14 08:14:57;;;;;;;21.08;14.38;;;6.90;99.90;;;;;;5025924;28;20394;-71
2020/12/14 08:17:23;;;;;;;19.17;15.77;;;6.90;99.90;;;;;;5025023;28;20486;-69
2020/12/14 08:20:28;;;;;;;23.40;15.48;;;7.00;99.90;;;;;;5023887;28;20107;-71
2020/12/14 08:22:56;;;;;;;18.42;13.73;;;7.00;99.90;;;;;;5026867;28;20049;-70
2020/12/14 08:25:27;;;;;;;21.52;17.05;;;7.00;99.90;;;;;;5026861;28;20042;-70
2020/12/14 08:27:59;;;;;;;21.00;14.90;;;7.00;99.90;;;;;;5027335;28;20076;-70
2020/12/14 08:30:25;;;;;;;18.15;15.88;;;7.10;99.90;;;;;;5027247;28;20497;-70
2020/12/14 08:33:17;;;;;;;18.92;14.98;;;7.00;99.90;;;;;;5026470;28;20062;-70
2020/12/14 08:35:44;;;;;;;22.42;16.05;;;7.10;99.90;;;;;;5027128;28;20489;-69
2020/12/14 08:38:31;;;;;;;21.70;16.38;;;7.10;99.90;;;;;;5027152;28;20049;-70
2020/12/14 08:41:03;;;;;;;17.02;13.85;;;7.10;99.90;;;;;;5026487;28;20058;-68
2020/12/14 08:43:54;;;;;;;18.40;14.18;;;7.20;99.90;;;;;;5018654;28;20053;-68
2020/12/14 08:46:27;;;;;;;21.98;13.75;;;7.20;99.90;;;;;;5007160;28;20104;-68
2020/12/14 08:48:55;;;;;;;20.67;15.13;;;7.20;99.90;;;;;;5007038;28;20106;-69
2020/12/14 08:51:41;;;;;;;15.20;12.05;;;7.20;99.90;;;;;;5005874;28;20061;-69
2020/12/14 08:54:15;;;;;;;18.85;14.88;;;7.30;99.90;;;;;;5006517;28;20050;-70
2020/12/14 08:56:41;;;;;;;20.73;13.93;;;7.30;99.90;;;;;;5007114;28;20046;-69
2020/12/14 08:59:27;;;;;;;17.50;15.35;;;7.30;99.90;;;;;;5006287;28;20050;-69
2020/12/14 09:02:04;;;;;;;20.38;14.82;;;7.30;99.90;;;;;;5006975;28;20069;-69
2020/12/14 09:04:31;;;;;;;17.73;14.68;;;7.30;99.90;;;;;;5007305;28;20042;-69
2020/12/14 09:06:58;;;;;;;22.75;16.00;;;7.30;99.90;;;;;;5007182;28;20448;-69
2020/12/14 09:09:35;;;;;;;17.92;14.77;;;7.30;99.90;;;;;;5006946;28;20069;-69
2020/12/14 09:12:21;;;;;;;26.33;18.25;;;7.30;99.90;;;;;;5005808;28;20054;-69
2020/12/14 09:14:47;;;;;;;18.15;15.13;;;7.30;99.90;;;;;;5006887;28;20089;-69
2020/12/14 09:17:33;;;;;;;23.73;15.48;;;7.30;99.90;;;;;;5006100;28;20138;-70
2020/12/14 09:20:00;;;;;;;19.00;14.40;;;7.30;99.90;;;;;;5006838;28;20076;-70
2020/12/14 09:22:25;;;;;;;23.27;16.77;;;7.30;99.90;;;;;;5006781;28;20042;-72
2020/12/14 09:24:51;;;;;;;24.70;17.10;;;7.30;99.90;;;;;;5024114;28;20046;-69
2020/12/14 09:27:18;;;;;;;21.40;15.68;;;7.40;99.90;;;;;;5024539;28;20120;-65
2020/12/14 09:29:45;;;;;;;18.10;14.57;;;7.40;99.90;;;;;;5018859;28;20042;-63
2020/12/14 09:32:31;;;;;;;14.50;12.50;;;7.40;99.90;;;;;;5012122;28;20050;-62
2020/12/14 09:34:57;;;;;;;24.42;15.43;;;7.50;99.90;;;;;;5029340;28;20046;-64
2020/12/14 09:37:23;;;;;;;21.52;14.05;;;7.50;99.90;;;;;;5025556;28;20046;-64
2020/12/14 09:39:49;;;;;;;21.38;14.70;;;7.50;99.90;;;;;;5021194;28;20046;-64
2020/12/14 09:42:15;;;;;;;16.67;14.20;;;7.60;99.90;;;;;;5026033;28;20408;-65
2020/12/14 09:44:41;;;;;;;16.10;13.18;;;7.70;99.90;;;;;;5025741;28;20046;-65
2020/12/14 09:47:09;;;;;;;16.38;13.48;;;7.70;99.90;;;;;;5036624;28;20132;-69
2020/12/14 09:49:35;;;;;;;15.25;13.00;;;7.70;99.90;;;;;;5026156;28;20049;-62
2020/12/14 09:52:01;;;;;;;17.92;13.27;;;7.70;99.90;;;;;;5025266;28;20054;-63
2020/12/14 09:54:26;;;;;;;23.05;14.05;;;7.70;99.90;;;;;;5025033;28;20042;-65
2020/12/14 09:56:52;;;;;;;16.67;12.93;;;7.80;99.90;;;;;;5025701;28;20060;-68
2020/12/14 09:59:38;;;;;;;22.90;14.48;;;7.80;99.90;;;;;;5024156;28;20053;-62
2020/12/14 10:02:04;;;;;;;18.88;13.15;;;7.80;99.90;;;;;;5025279;28;20088;-62
2020/12/14 10:04:30;;;;;;;20.35;14.52;;;7.80;99.90;;;;;;5019396;28;20073;-65
2020/12/14 10:07:15;;;;;;;23.63;14.88;;;7.90;99.90;;;;;;5033163;28;20068;-65
2020/12/14 10:10:01;;;;;;;19.08;13.80;;;7.90;99.90;;;;;;5039612;28;20038;-66
2020/12/14 10:12:28;;;;;;;19.17;13.52;;;7.90;99.90;;;;;;5025321;28;20050;-67
2020/12/14 10:14:56;;;;;;;15.98;12.95;;;8.00;99.90;;;;;;5025369;28;20184;-66
2020/12/14 10:17:41;;;;;;;19.58;12.45;;;8.00;99.90;;;;;;5011315;28;20046;-66
2020/12/14 10:20:28;;;;;;;15.43;12.85;;;8.10;99.90;;;;;;5024532;28;20046;-65
2020/12/14 10:22:54;;;;;;;16.85;13.05;;;8.10;99.90;;;;;;5019398;28;20049;-65
2020/12/14 10:25:21;;;;;;;16.20;13.43;;;8.20;99.90;;;;;;5025859;28;20041;-64
2020/12/14 10:27:47;;;;;;;14.48;11.90;;;8.30;99.90;;;;;;5024914;28;20037;-66
2020/12/14 10:30:13;;;;;;;17.02;10.32;;;8.30;99.90;;;;;;5025038;28;20084;-65
2020/12/14 10:32:38;;;;;;;16.13;12.52;;;8.30;99.90;;;;;;5024287;28;20069;-68
2020/12/14 10:35:24;;;;;;;16.52;13.27;;;8.40;99.90;;;;;;5022129;28;20398;-66
2020/12/14 10:38:11;;;;;;;14.85;13.02;;;8.40;99.90;;;;;;5023779;28;20113;-65
2020/12/14 10:40:37;;;;;;;21.35;14.35;;;8.40;99.90;;;;;;5024622;28;20048;-62
2020/12/14 10:43:02;;;;;;;13.40;10.80;;;8.40;99.90;;;;;;5025060;28;20046;-69
2020/12/14 10:45:29;;;;;;;18.15;12.38;;;8.50;99.90;;;;;;5024971;28;20592;-63
2020/12/14 10:47:54;;;;;;;14.07;11.40;;;8.60;99.90;;;;;;5024517;28;20038;-63
2020/12/14 10:50:40;;;;;;;17.63;12.60;;;8.90;99.90;;;;;;5023014;28;20046;-64
2020/12/14 10:53:06;;;;;;;18.10;12.02;;;8.80;99.90;;;;;;5024665;28;20061;-64
2020/12/14 10:55:32;;;;;;;14.02;12.48;;;9.00;99.90;;;;;;5024502;28;20049;-64
2020/12/14 10:58:17;;;;;;;15.93;12.68;;;8.90;99.90;;;;;;5022935;28;20058;-64
2020/12/14 11:01:03;;;;;;;14.60;11.85;;;9.10;99.90;;;;;;5023033;28;20131;-63
2020/12/14 11:03:29;;;;;;;14.70;11.98;;;9.00;99.90;;;;;;5024493;28;20050;-63
2020/12/14 11:05:55;;;;;;;15.68;13.38;;;8.80;99.90;;;;;;5024652;28;20488;-63
2020/12/14 11:08:21;;;;;;;18.70;12.27;;;8.90;99.90;;;;;;5024742;28;20069;-64
2020/12/14 11:11:06;;;;;;;14.63;12.15;;;8.90;99.90;;;;;;5022671;28;20058;-62
2020/12/14 11:13:32;;;;;;;12.68;11.30;;;9.00;99.90;;;;;;5024980;28;20069;-61
2020/12/14 11:15:59;;;;;;;15.38;11.65;;;9.10;99.90;;;;;;5024534;28;20054;-62
2020/12/14 11:18:25;;;;;;;14.48;10.45;;;9.00;99.90;;;;;;5027200;28;20053;-61
2020/12/14 11:21:13;;;;;;;12.07;10.68;;;9.10;99.90;;;;;;5027389;28;20085;-63
2020/12/14 11:23:38;;;;;;;14.10;11.30;;;9.20;99.90;;;;;;5028404;28;20052;-61
2020/12/14 11:26:04;;;;;;;11.27;10.15;;;9.50;99.90;;;;;;5028228;28;20320;-63
2020/12/14 11:28:50;;;;;;;14.15;11.02;;;9.50;99.90;;;;;;5027639;28;20145;-63
2020/12/14 11:31:36;;;;;;;12.48;10.05;;;9.30;99.90;;;;;;5026768;28;20077;-63
2020/12/14 11:34:22;;;;;;;8.43;7.63;;;9.80;99.90;;;;;;5026551;28;20136;-62
2020/12/14 11:36:48;;;;;;;13.88;10.55;;;9.40;99.90;;;;;;5027175;28;20075;-63
2020/12/14 11:39:14;;;;;;;10.20;9.18;;;9.40;99.90;;;;;;5027131;28;20113;-65
2020/12/14 11:41:59;;;;;;;10.98;9.85;;;9.40;99.90;;;;;;5024443;28;20049;-67
2020/12/14 11:44:45;;;;;;;10.70;9.02;;;9.50;99.90;;;;;;5026968;28;20046;-64
2020/12/14 11:47:11;;;;;;;12.15;10.10;;;9.60;99.90;;;;;;5024824;28;20050;-69
2020/12/14 11:49:37;;;;;;;10.20;8.70;;;9.60;99.90;;;;;;5023558;28;20093;-62
2020/12/14 11:52:23;;;;;;;9.75;8.73;;;9.60;99.90;;;;;;5025850;28;20145;-63
2020/12/14 11:54:49;;;;;;;12.20;9.45;;;9.60;99.90;;;;;;5027723;28;20050;-63
2020/12/14 11:57:14;;;;;;;8.13;6.88;;;9.70;99.90;;;;;;5027701;28;20177;-63
2020/12/14 11:59:40;;;;;;;8.98;8.07;;;9.70;99.90;;;;;;5027641;28;20048;-63
2020/12/14 12:02:06;;;;;;;11.45;9.75;;;9.80;99.90;;;;;;5027583;28;20050;-63
2020/12/14 12:04:32;;;;;;;10.55;9.07;;;9.80;99.90;;;;;;5026920;28;20049;-66
2020/12/14 12:07:18;;;;;;;10.05;8.52;;;9.80;99.90;;;;;;5026708;28;20046;-66
2020/12/14 12:09:43;;;;;;;10.10;8.60;;;9.90;99.90;;;;;;5027614;28;20192;-66
2020/12/14 12:12:29;;;;;;;9.48;7.50;;;9.90;99.90;;;;;;5026425;28;20053;-67
2020/12/14 12:15:15;;;;;;;11.27;9.48;;;9.90;99.90;;;;;;5026314;28;20053;-66
2020/12/14 12:17:42;;;;;;;15.75;9.00;;;9.90;99.90;;;;;;5027379;28;20041;-67
2020/12/14 12:20:09;;;;;;;10.40;8.95;;;9.90;99.90;;;;;;5027571;28;20046;-67
2020/12/14 12:22:58;;;;;;;12.05;6.95;;;10.00;99.90;;;;;;5026690;28;20061;-67
2020/12/14 12:25:25;;;;;;;12.18;8.30;;;9.80;99.90;;;;;;5027280;28;20049;-67
2020/12/14 12:28:13;;;;;;;9.13;8.23;;;9.90;99.90;;;;;;5026171;28;20056;-66
2020/12/14 12:30:38;;;;;;;12.77;8.90;;;9.90;99.90;;;;;;5026411;28;20117;-67
2020/12/14 12:33:04;;;;;;;8.73;7.63;;;9.90;99.90;;;;;;5026896;28;20046;-66
2020/12/14 12:35:30;;;;;;;10.45;8.25;;;9.90;99.90;;;;;;5027129;28;20049;-67
2020/12/14 12:37:56;;;;;;;9.70;6.88;;;9.80;99.90;;;;;;5026989;28;20072;-67
2020/12/14 12:40:22;;;;;;;10.40;7.93;;;9.90;99.90;;;;;;5020848;28;20073;-68
2020/12/14 12:43:08;;;;;;;10.98;8.40;;;9.90;99.90;;;;;;5006078;28;20077;-70
2020/12/14 12:45:34;;;;;;;10.95;7.10;;;9.90;99.90;;;;;;5021050;28;20038;-72
2020/12/14 12:48:20;;;;;;;11.40;7.68;;;10.00;99.90;;;;;;5022518;28;20054;-68
2020/12/14 12:50:52;;;;;;;9.25;7.78;;;9.90;99.90;;;;;;5026400;28;20056;-66
2020/12/14 12:53:22;;;;;;;8.48;7.45;;;10.00;99.90;;;;;;5025814;28;20076;-65
2020/12/14 12:55:48;;;;;;;15.43;7.35;;;10.00;99.90;;;;;;5024929;28;20157;-61
2020/12/14 12:58:33;;;;;;;8.75;6.72;;;10.00;99.90;;;;;;5015394;28;20062;-70
2020/12/14 13:00:59;;;;;;;8.95;6.90;;;10.10;99.90;;;;;;5025696;28;20042;-70
2020/12/14 13:03:45;;;;;;;10.35;7.43;;;10.20;99.90;;;;;;5024288;28;20045;-69
2020/12/14 13:06:11;;;;;;;8.98;7.57;;;10.20;99.90;;;;;;5026299;28;20080;-72
2020/12/14 13:08:37;;;;;;;7.50;5.80;;;10.20;99.90;;;;;;5026054;28;20064;-69
2020/12/14 13:11:03;;;;;;;9.77;6.97;;;10.30;99.90;;;;;;5026558;28;20466;-68
2020/12/14 13:13:29;;;;;;;8.95;6.57;;;10.20;99.90;;;;;;5025850;28;20070;-69
2020/12/14 13:15:55;;;;;;;7.57;6.88;;;10.30;99.90;;;;;;5023910;28;20042;-73